METAR Data
IDs: Format: Raw Decoded Include TAF

Data at: 0021 UTC 14 May 2021

KC99 140015Z AUTO 30008G17KT 10SM CLR 07/M07 A3038 RMK AO2
KC99 132355Z AUTO 29006G18KT 10SM SCT070 07/M07 A3039 RMK AO2
KC99 132335Z AUTO 27009G18KT 220V300 10SM SCT070 SCT085 07/M07 A3037 RMK AO2
KC99 132315Z AUTO 27006G19KT 10SM SCT032 SCT040 SCT048 07/M06 A3037 RMK AO2
KC99 132255Z AUTO 30010G21KT 10SM SCT055 SCT070 06/M07 A3039 RMK AO2
KC99 132235Z AUTO 29008G16KT 280V340 10SM CLR 08/M07 A3037 RMK AO2 LTG DSNT NE
KC99 132215Z AUTO 31012G20KT 10SM SCT050 SCT070 BKN110 08/M07 A3037 RMK AO2
KC99 132155Z AUTO 30014G20KT 10SM SCT043 SCT060 BKN070 07/M07 A3038 RMK AO2
KC99 132135Z AUTO 31016G27KT 10SM SCT033 SCT046 BKN055 06/M07 A3037 RMK AO2
KC99 132115Z AUTO 30019G32KT 10SM SCT042 SCT055 SCT070 07/M07 A3038 RMK AO2
KC99 132055Z AUTO 28020G30KT 10SM CLR 07/M07 A3038 RMK AO2
KC99 132035Z AUTO 29013G21KT 10SM SCT060 SCT080 07/M06 A3040 RMK AO2
KC99 132015Z AUTO 30012G27KT 10SM SCT060 BKN080 08/M07 A3039 RMK AO2
KC99 131955Z AUTO 31011G24KT 10SM SCT070 SCT080 BKN090 07/M08 A3039 RMK AO2
KC99 131935Z AUTO 30012G25KT 10SM SCT060 SCT090 08/M07 A3039 RMK AO2
KC99 131915Z AUTO 31013G31KT 10SM SCT060 06/M08 A3039 RMK AO2
KC99 131855Z AUTO 31012G25KT 10SM SCT060 07/M07 A3040 RMK AO2
KC99 131835Z AUTO 31015G24KT 10SM CLR 06/M08 A3040 RMK AO2
KC99 131815Z AUTO 31017G30KT 10SM CLR 05/M08 A3040 RMK AO2
KC99 131755Z AUTO 31013G29KT 10SM CLR 05/M09 A3040 RMK AO2
KC99 131735Z AUTO 31014G40KT 10SM CLR 05/M09 A3039 RMK AO2
KC99 131715Z AUTO 30013G30KT 10SM CLR 05/M09 A3040 RMK AO2
KC99 131655Z AUTO 31016G29KT 10SM CLR 05/M08 A3039 RMK AO2
KC99 131635Z AUTO 31016G25KT 10SM CLR 05/M08 A3039 RMK AO2
KC99 131615Z AUTO 30017G27KT 10SM CLR 05/M09 A3039 RMK AO2
KC99 131555Z AUTO 31014G27KT 280V340 10SM CLR 04/M10 A3039 RMK AO2
KC99 131535Z AUTO 29015G27KT 270V330 10SM CLR 03/M10 A3039 RMK AO2
KC99 131515Z AUTO 29016G28KT 270V330 10SM CLR 03/M10 A3039 RMK AO2
KC99 131455Z AUTO 29013G20KT 260V020 10SM CLR 02/M10 A3039 RMK AO2
KC99 131435Z AUTO 28008G18KT 250V320 10SM CLR 02/M10 A3040 RMK AO2
KC99 131415Z AUTO 29012G22KT 270V010 10SM CLR 01/M10 A3039 RMK AO2
KC99 131355Z AUTO 29007G19KT 240V320 10SM CLR 01/M10 A3039 RMK AO2
KC99 131335Z AUTO 28007KT 250V310 10SM CLR 01/M10 A3039 RMK AO2
KC99 131315Z AUTO 30004KT 10SM CLR 01/M10 A3039 RMK AO2
KC99 131255Z AUTO 00000KT 10SM CLR 00/M10 A3039 RMK AO2
KC99 131235Z AUTO 00000KT 10SM CLR 00/M10 A3039 RMK AO2
KC99 131215Z AUTO 27008G15KT 250V320 10SM CLR 00/M10 A3039 RMK AO2
KC99 131155Z AUTO 27005KT 10SM CLR 00/M10 A3038 RMK AO2
KC99 131135Z AUTO 24003KT 10SM CLR 00/M10 A3038 RMK AO2
KC99 131115Z AUTO 00000KT 10SM CLR 00/M10 A3038 RMK AO2
KC99 131055Z AUTO 00000KT 10SM CLR 00/M10 A3039 RMK AO2
KC99 131035Z AUTO 22003KT 10SM CLR 00/M10 A3039 RMK AO2
KC99 131015Z AUTO 00000KT 10SM CLR 00/M09 A3039 RMK AO2
KC99 130955Z AUTO 00000KT 10SM CLR 00/M10 A3039 RMK AO2
KC99 130935Z AUTO 25004KT 10SM CLR 00/M09 A3040 RMK AO2
KC99 130913Z AUTO 27007KT 10SM CLR 00/M09 A3040 RMK AO2
KC99 130855Z AUTO 29005KT 10SM CLR 00/M09 A3040 RMK AO2
KC99 130831Z AUTO 27006KT 10SM SCT050 00/M09 A3040 RMK AO2
KC99 130815Z AUTO 29006KT 10SM CLR 00/M09 A3040 RMK AO2
KC99 130755Z AUTO 31005KT 10SM CLR 00/M09 A3041 RMK AO2
KC99 130735Z AUTO 28010G15KT 10SM CLR 00/M09 A3042 RMK AO2
KC99 130715Z AUTO 29008G14KT 270V340 10SM CLR 00/M08 A3041 RMK AO2
KC99 130649Z AUTO 29008G15KT 10SM CLR 00/M08 A3041 RMK AO2
KC99 130635Z AUTO 29008G15KT 10SM CLR 00/M08 A3042 RMK AO2
KC99 130615Z AUTO 28007KT 10SM CLR 00/M08 A3042 RMK AO2
KC99 130555Z AUTO 29008KT 270V340 10SM CLR 00/M08 A3042 RMK AO2
KC99 130535Z AUTO 30009G15KT 10SM CLR 00/M08 A3042 RMK AO2
KC99 130515Z AUTO 31011G16KT 280V350 10SM CLR 00/M07 A3042 RMK AO2
KC99 130455Z AUTO 31011G17KT 290V350 10SM SCT110 00/M07 A3042 RMK AO2
KC99 130435Z AUTO 31012G16KT 290V350 10SM SCT110 00/M07 A3043 RMK AO2
KC99 130415Z AUTO 29006KT 10SM CLR M01/M06 A3043 RMK AO2
KC99 130355Z AUTO 27007KT 10SM CLR M01/M06 A3043 RMK AO2
KC99 130335Z AUTO 20008KT 10SM CLR M01/M05 A3043 RMK AO2
KC99 130315Z AUTO 31003KT 10SM CLR 00/M07 A3043 RMK AO2
KC99 130255Z AUTO 35005KT 10SM CLR 00/M07 A3042 RMK AO2
KC99 130235Z AUTO 33005KT 10SM CLR 00/M06 A3042 RMK AO2
KC99 130215Z AUTO 29003KT 10SM CLR 00/M06 A3042 RMK AO2
KC99 130155Z AUTO 00000KT 10SM SCT048 00/M06 A3041 RMK AO2
KC99 130135Z AUTO 36005KT 10SM BKN048 OVC050 01/M06 A3040 RMK AO2
KC99 130115Z AUTO 35005KT 10SM BKN050 OVC055 01/M06 A3040 RMK AO2
KC99 130055Z AUTO 35005KT 10SM BKN047 BKN055 01/M05 A3040 RMK AO2 P0003
KC99 130035Z AUTO 32005KT 10SM BKN047 BKN055 02/M05 A3040 RMK AO2 P0003
KC99 130015Z AUTO 33007KT 10SM SCT041 BKN047 BKN055 03/M05 A3039 RMK AO2 P0002
KC99 122355Z AUTO 33006KT 270V350 10SM BKN041 BKN049 03/M04 A3039 RMK AO2 P0007
KC99 122335Z AUTO 34005KT 10SM BKN040 BKN047 BKN060 03/M04 A3038 RMK AO2 P0002
KC99 122315Z AUTO 34008G17KT 10SM BKN038 BKN048 BKN055 02/M04 A3038 RMK AO2
KC99 122255Z AUTO 33007KT 10SM SCT038 SCT050 SCT070 02/M04 A3037 RMK AO2 P0007
KC99 122235Z AUTO 31012G22KT 290V350 10SM BKN039 BKN049 BKN070 02/M05 A3037 RMK AO2 P0004
KC99 122215Z AUTO 30012G21KT 280V030 10SM BKN038 OVC050 01/M05 A3038 RMK AO2 P0002
KC99 122155Z AUTO 29006G18KT 280V040 10SM BKN038 OVC050 02/M04 A3038 RMK AO2 P0007
KC99 122135Z AUTO 32005G14KT 10SM SCT036 BKN043 OVC050 01/M05 A3037 RMK AO2 P0004
KC99 122115Z AUTO 30007G16KT 260V350 10SM SCT032 BKN039 OVC050 01/M05 A3038 RMK AO2 P0001
KC99 122055Z AUTO 30009G16KT 10SM BKN034 OVC041 01/M05 A3037 RMK AO2 P0006
KC99 122035Z AUTO 28007KT 10SM BKN037 OVC055 00/M05 A3038 RMK AO2 P0003
KC99 122015Z AUTO 28008KT 10SM BKN035 BKN043 OVC055 01/M05 A3038 RMK AO2 P0002
KC99 121955Z AUTO 29010G25KT 10SM BKN035 OVC043 00/M06 A3037 RMK AO2 P0002
KC99 121935Z AUTO 29006G20KT 10SM SCT035 BKN041 OVC055 00/M06 A3037 RMK AO2
KC99 121915Z AUTO 31012G18KT 280V350 10SM BKN038 OVC060 00/M05 A3037 RMK AO2
KC99 121855Z AUTO 30009G16KT 270V330 10SM BKN037 BKN042 00/M06 A3037 RMK AO2
KC99 121835Z AUTO 30011G18KT 10SM OVC035 00/M07 A3037 RMK AO2
KC99 121815Z AUTO 32008G17KT 10SM BKN037 BKN046 M01/M07 A3037 RMK AO2
KC99 121755Z AUTO 29010G19KT 260V340 10SM OVC033 M01/M07 A3037 RMK AO2 P0001
KC99 121735Z AUTO 28007KT 260V320 10SM BKN031 OVC036 M02/M07 A3037 RMK AO2 P0001
KC99 121715Z AUTO 33006G15KT 280V360 10SM BKN029 OVC034 M01/M06 A3037 RMK AO2
KC99 121655Z AUTO 35007KT 10SM OVC031 M01/M07 A3037 RMK AO2
KC99 121635Z AUTO 31009G14KT 10SM BKN031 OVC037 M01/M06 A3036 RMK AO2
KC99 121615Z AUTO 29010KT 10SM SCT030 BKN036 M01/M06 A3036 RMK AO2
KC99 121555Z AUTO 28008G21KT 10SM SCT026 SCT032 SCT037 M01/M07 A3035 RMK AO2 P0001
KC99 121535Z AUTO 29009KT 10SM SCT024 BKN032 M02/M07 A3035 RMK AO2 P0001
KC99 121515Z AUTO 28007KT 10SM SCT023 BKN031 BKN039 M02/M07 A3035 RMK AO2 P0001
KC99 121455Z AUTO 28007KT 260V340 10SM SCT025 SCT031 OVC039 M02/M07 A3035 RMK AO2
KC99 121435Z AUTO 20004KT 10SM BKN041 M03/M08 A3035 RMK AO2
KC99 121415Z AUTO 29003KT 10SM SCT039 M03/M08 A3034 RMK AO2
KC99 121355Z AUTO 29008KT 270V330 10SM SCT042 M04/M09 A3034 RMK AO2
KC99 121335Z AUTO 26004KT 10SM BKN044 M05/M10 A3034 RMK AO2
KC99 121315Z AUTO 30009KT 280V340 10SM OVC044 M05/M10 A3033 RMK AO2
KC99 121255Z AUTO 29006KT 10SM BKN044 BKN049 M05/M10 A3033 RMK AO2
KC99 121235Z AUTO 29008KT 10SM SCT048 M06/M10 A3032 RMK AO2